Time;durP1;ratioP1;P1;durP2;ratioP2;P2;SDS_P1;SDS_P2;PMS_P1;PMS_P2;Temp;Humidity;BMP_temperature;BMP_pressure;BME280_temperature;BME280_humidity;BME280_pressure;Samples;Min_cycle;Max_cycle;Signal;HPM_P1;HPM_P2
2023/12/02 00:00:28;;;;;;;44.60;9.73;;;;;;;;;;10028237;28;20038;-71
2023/12/02 00:05:20;;;;;;;43.50;10.15;;;;;;;;;;10023825;28;20737;-71
2023/12/02 00:10:12;;;;;;;47.28;8.35;;;;;;;;;;10024865;28;20503;-71
2023/12/02 00:15:05;;;;;;;41.50;8.25;;;;;;;;;;10024000;28;20108;-71
2023/12/02 00:19:57;;;;;;;44.22;11.73;;;;;;;;;;10027043;28;20490;-71
2023/12/02 00:24:48;;;;;;;30.30;7.40;;;;;;;;;;10030534;28;20357;-71
2023/12/02 00:29:40;;;;;;;42.33;8.05;;;;;;;;;;10034043;28;20034;-71
2023/12/02 00:34:32;;;;;;;35.08;8.57;;;;;;;;;;10033786;28;20046;-72
2023/12/02 00:39:24;;;;;;;21.38;7.60;;;;;;;;;;10034190;28;20046;-72
2023/12/02 00:44:16;;;;;;;33.47;7.03;;;;;;;;;;10033596;28;20038;-72
2023/12/02 00:49:07;;;;;;;27.52;6.30;;;;;;;;;;10032593;28;20125;-72
2023/12/02 00:53:59;;;;;;;21.45;5.50;;;;;;;;;;10035910;28;20480;-72
2023/12/02 00:58:53;;;;;;;17.88;5.53;;;;;;;;;;10032897;28;20050;-70
2023/12/02 01:03:45;;;;;;;15.55;12.10;;;;;;;;;;10032146;28;20133;-70
2023/12/02 01:08:37;;;;;;;13.63;12.23;;;;;;;;;;10032149;28;20081;-70
2023/12/02 01:13:29;;;;;;;14.00;12.50;;;;;;;;;;10036285;28;20077;-72
2023/12/02 01:18:21;;;;;;;14.65;12.40;;;;;;;;;;10032646;28;20046;-70
2023/12/02 01:23:12;;;;;;;16.42;14.45;;;;;;;;;;10032009;28;20042;-72
2023/12/02 01:28:04;;;;;;;16.70;14.90;;;;;;;;;;10032005;28;20046;-72
2023/12/02 01:32:56;;;;;;;16.55;13.80;;;;;;;;;;10032006;28;20052;-72
2023/12/02 01:37:48;;;;;;;19.67;13.93;;;;;;;;;;10028823;28;20085;-72
2023/12/02 01:42:40;;;;;;;18.30;13.93;;;;;;;;;;10033283;28;20049;-72
2023/12/02 01:47:32;;;;;;;16.77;14.13;;;;;;;;;;10031534;28;20048;-72
2023/12/02 01:52:24;;;;;;;15.93;13.40;;;;;;;;;;10031990;28;20350;-72
2023/12/02 01:57:16;;;;;;;16.92;13.30;;;;;;;;;;10030498;28;20137;-73
2023/12/02 02:02:07;;;;;;;19.90;13.93;;;;;;;;;;10030961;28;20053;-72
2023/12/02 02:06:59;;;;;;;16.40;12.75;;;;;;;;;;10030751;28;20465;-72
2023/12/02 02:11:51;;;;;;;13.63;11.10;;;;;;;;;;10030203;28;20084;-72
2023/12/02 02:16:43;;;;;;;11.63;8.60;;;;;;;;;;10030080;28;20046;-72
2023/12/02 02:21:35;;;;;;;8.35;6.30;;;;;;;;;;10029192;28;20128;-71
2023/12/02 02:26:26;;;;;;;5.97;3.63;;;;;;;;;;10030391;28;20046;-72
2023/12/02 02:31:18;;;;;;;18.08;15.63;;;;;;;;;;10029705;28;20050;-72
2023/12/02 02:36:10;;;;;;;15.18;13.55;;;;;;;;;;10028409;28;20147;-72
2023/12/02 02:41:02;;;;;;;15.23;13.63;;;;;;;;;;10030005;28;20050;-72
2023/12/02 02:45:54;;;;;;;16.33;13.63;;;;;;;;;;10030107;28;20060;-72
2023/12/02 02:50:46;;;;;;;5.43;3.78;;;;;;;;;;10029064;28;20365;-71
2023/12/02 02:55:38;;;;;;;4.40;2.45;;;;;;;;;;10029926;28;20051;-72
2023/12/02 03:00:30;;;;;;;3.40;2.70;;;;;;;;;;10029296;28;20038;-72
2023/12/02 03:05:22;;;;;;;6.88;2.28;;;;;;;;;;10030377;28;20556;-72
2023/12/02 03:10:17;;;;;;;2.65;2.22;;;;;;;;;;10029382;28;20050;-72
2023/12/02 03:15:10;;;;;;;3.50;2.10;;;;;;;;;;10028522;28;20049;-72
2023/12/02 03:20:02;;;;;;;5.75;1.80;;;;;;;;;;10028413;28;20050;-72
2023/12/02 03:24:55;;;;;;;3.92;2.05;;;;;;;;;;10028437;28;20073;-72
2023/12/02 03:29:47;;;;;;;6.55;2.70;;;;;;;;;;10027704;28;20100;-71
2023/12/02 03:34:38;;;;;;;2.10;1.85;;;;;;;;;;10027271;28;20050;-72
2023/12/02 03:39:30;;;;;;;2.42;1.50;;;;;;;;;;10028886;28;20421;-72
2023/12/02 03:44:22;;;;;;;3.58;1.55;;;;;;;;;;10027919;28;20049;-71
2023/12/02 03:49:14;;;;;;;3.08;1.30;;;;;;;;;;10028505;28;20104;-72
2023/12/02 03:54:06;;;;;;;1.67;1.52;;;;;;;;;;10026927;28;20042;-72
2023/12/02 03:58:58;;;;;;;3.78;2.13;;;;;;;;;;10031621;28;20053;-71
2023/12/02 04:03:50;;;;;;;3.83;1.98;;;;;;;;;;10036030;28;20425;-72
2023/12/02 04:08:41;;;;;;;2.88;1.10;;;;;;;;;;10034337;28;20125;-72
2023/12/02 04:13:33;;;;;;;1.55;1.15;;;;;;;;;;10035159;28;20112;-72
2023/12/02 04:18:25;;;;;;;4.93;1.98;;;;;;;;;;10033846;28;20081;-72
2023/12/02 04:23:18;;;;;;;8.20;1.70;;;;;;;;;;10034474;28;20350;-71
2023/12/02 04:28:10;;;;;;;4.60;1.50;;;;;;;;;;10033536;28;20060;-71
2023/12/02 04:33:03;;;;;;;1.50;1.38;;;;;;;;;;10033867;28;20042;-71
2023/12/02 04:37:56;;;;;;;3.47;1.65;;;;;;;;;;10033992;28;20046;-71
2023/12/02 04:42:47;;;;;;;2.05;1.55;;;;;;;;;;10034213;28;20042;-71
2023/12/02 04:47:39;;;;;;;1.90;1.10;;;;;;;;;;10033034;28;20445;-71
2023/12/02 04:52:32;;;;;;;2.97;1.38;;;;;;;;;;10033701;28;20088;-71
2023/12/02 04:57:25;;;;;;;4.05;1.42;;;;;;;;;;10033784;28;20046;-71
2023/12/02 05:02:20;;;;;;;2.15;1.15;;;;;;;;;;10033123;28;20041;-71
2023/12/02 05:07:12;;;;;;;1.48;1.15;;;;;;;;;;10032034;28;20053;-71
2023/12/02 05:12:04;;;;;;;3.53;1.00;;;;;;;;;;10032944;28;20042;-71
2023/12/02 05:16:56;;;;;;;1.60;0.80;;;;;;;;;;10032119;28;20053;-71
2023/12/02 05:21:48;;;;;;;1.58;1.35;;;;;;;;;;10032531;28;20057;-71
2023/12/02 05:26:40;;;;;;;1.88;1.67;;;;;;;;;;10034957;28;20048;-71
2023/12/02 05:31:32;;;;;;;5.95;2.97;;;;;;;;;;10032008;28;20116;-71
2023/12/02 05:36:24;;;;;;;5.97;3.97;;;;;;;;;;10031345;28;20045;-71
2023/12/02 05:41:16;;;;;;;7.43;5.95;;;;;;;;;;10033540;28;20037;-71
2023/12/02 05:46:15;;;;;;;4.15;3.10;;;;;;;;;;10028593;28;20048;-71
2023/12/02 05:51:07;;;;;;;3.38;2.53;;;;;;;;;;10068951;28;20045;-71
2023/12/02 05:55:58;;;;;;;6.85;2.25;;;;;;;;;;10068090;28;20095;-71
2023/12/02 06:00:51;;;;;;;4.72;1.00;;;;;;;;;;10068125;28;20481;-71
2023/12/02 06:05:42;;;;;;;1.77;1.00;;;;;;;;;;10068403;28;20045;-71
2023/12/02 06:10:34;;;;;;;3.58;1.58;;;;;;;;;;10067997;28;20132;-71
2023/12/02 06:15:26;;;;;;;6.22;1.67;;;;;;;;;;10031136;28;20129;-71
2023/12/02 06:20:18;;;;;;;1.75;1.63;;;;;;;;;;10029926;28;20143;-71
2023/12/02 06:25:10;;;;;;;6.13;3.85;;;;;;;;;;10030276;28;20041;-71
2023/12/02 06:30:02;;;;;;;12.13;7.47;;;;;;;;;;10029508;28;20041;-71
2023/12/02 06:34:54;;;;;;;4.45;3.10;;;;;;;;;;10065091;28;20061;-70
2023/12/02 06:39:46;;;;;;;5.25;2.58;;;;;;;;;;10066142;28;20125;-70
2023/12/02 06:44:38;;;;;;;3.78;1.42;;;;;;;;;;10066838;28;20414;-69
2023/12/02 06:49:29;;;;;;;3.25;2.53;;;;;;;;;;10065671;28;20077;-71
2023/12/02 06:54:21;;;;;;;8.35;6.63;;;;;;;;;;10053320;28;20547;-70
2023/12/02 06:59:13;;;;;;;6.97;4.03;;;;;;;;;;10066003;28;20089;-70
2023/12/02 07:04:05;;;;;;;2.28;1.73;;;;;;;;;;10065133;28;20046;-71
2023/12/02 07:08:57;;;;;;;12.50;6.57;;;;;;;;;;10064786;28;20133;-70
2023/12/02 07:13:49;;;;;;;8.93;5.30;;;;;;;;;;10065893;28;20046;-68
2023/12/02 07:18:41;;;;;;;1.25;1.10;;;;;;;;;;10063825;28;20053;-69
2023/12/02 07:23:34;;;;;;;12.55;5.82;;;;;;;;;;10059035;28;20408;-68
2023/12/02 07:28:26;;;;;;;8.18;4.53;;;;;;;;;;10061998;28;20079;-68
2023/12/02 07:33:21;;;;;;;4.32;3.00;;;;;;;;;;10065870;28;20080;-68
2023/12/02 07:38:15;;;;;;;9.55;3.35;;;;;;;;;;10069135;28;20148;-68
2023/12/02 07:43:07;;;;;;;9.60;7.53;;;;;;;;;;10069416;28;20471;-68
2023/12/02 07:47:59;;;;;;;9.85;6.10;;;;;;;;;;10069095;28;20372;-68
2023/12/02 07:52:51;;;;;;;7.28;4.05;;;;;;;;;;10068765;28;20045;-68
2023/12/02 07:57:43;;;;;;;6.80;3.20;;;;;;;;;;10068896;28;20045;-68
2023/12/02 08:02:35;;;;;;;4.65;2.42;;;;;;;;;;10067882;28;20038;-68
2023/12/02 08:07:27;;;;;;;6.97;3.17;;;;;;;;;;10068702;28;20107;-69
2023/12/02 08:12:19;;;;;;;5.13;2.60;;;;;;;;;;10070319;28;20037;-70
2023/12/02 08:17:11;;;;;;;5.50;3.03;;;;;;;;;;10070462;28;20056;-70
2023/12/02 08:22:03;;;;;;;3.05;1.38;;;;;;;;;;10032673;28;20062;-70
2023/12/02 08:26:55;;;;;;;4.43;1.40;;;;;;;;;;10066419;28;20057;-70
2023/12/02 08:31:47;;;;;;;2.80;1.33;;;;;;;;;;10069723;28;20145;-69
2023/12/02 08:36:41;;;;;;;3.58;1.42;;;;;;;;;;10056849;28;20041;-70
2023/12/02 08:41:33;;;;;;;4.85;1.40;;;;;;;;;;10070306;28;20477;-70
2023/12/02 08:46:25;;;;;;;5.57;1.98;;;;;;;;;;10070077;28;20037;-69
2023/12/02 08:51:17;;;;;;;4.32;1.70;;;;;;;;;;10070920;28;20087;-71
2023/12/02 08:56:10;;;;;;;1.88;1.52;;;;;;;;;;10070713;28;20534;-73
2023/12/02 09:01:03;;;;;;;1.88;1.10;;;;;;;;;;10061070;28;20058;-74
2023/12/02 09:05:55;;;;;;;3.50;1.25;;;;;;;;;;10052187;28;20144;-71
2023/12/02 09:10:48;;;;;;;3.35;1.38;;;;;;;;;;10032804;28;20046;-71
2023/12/02 09:15:41;;;;;;;9.45;1.77;;;;;;;;;;10065702;28;20064;-71
2023/12/02 09:20:41;;;;;;;5.30;1.00;;;;;;;;;;10059785;28;20061;-70
2023/12/02 09:25:38;;;;;;;2.83;1.30;;;;;;;;;;10036359;28;20045;-70
2023/12/02 09:30:34;;;;;;;1.08;1.00;;;;;;;;;;10053353;28;20038;-70
2023/12/02 09:35:26;;;;;;;2.63;1.75;;;;;;;;;;10046714;28;20191;-70
2023/12/02 09:40:21;;;;;;;2.45;1.65;;;;;;;;;;10052339;28;20053;-70
2023/12/02 09:45:13;;;;;;;9.65;1.83;;;;;;;;;;10060518;28;20041;-70
2023/12/02 09:50:11;;;;;;;3.10;1.40;;;;;;;;;;10057975;28;20104;-70
2023/12/02 09:55:26;;;;;;;2.80;1.48;;;;;;;;;;10063033;28;20041;-70
2023/12/02 10:00:30;;;;;;;4.13;1.48;;;;;;;;;;10039912;28;20042;-70
2023/12/02 10:05:22;;;;;;;1.48;1.25;;;;;;;;;;10041687;28;20045;-71
2023/12/02 10:10:18;;;;;;;1.25;1.00;;;;;;;;;;10056035;28;20044;-70
2023/12/02 10:15:12;;;;;;;5.97;3.92;;;;;;;;;;10051670;28;20081;-70
2023/12/02 10:20:11;;;;;;;2.15;1.02;;;;;;;;;;10138962;28;20410;-70
2023/12/02 10:25:06;;;;;;;0.90;0.90;;;;;;;;;;10125426;28;20120;-69
2023/12/02 10:30:15;;;;;;;1.83;1.13;;;;;;;;;;10119935;28;20056;-69
2023/12/02 10:35:18;;;;;;;0.82;0.70;;;;;;;;;;10122569;28;20048;-69
2023/12/02 10:40:13;;;;;;;1.40;1.30;;;;;;;;;;10129145;28;20045;-69
2023/12/02 10:45:07;;;;;;;3.53;2.60;;;;;;;;;;10133875;28;20528;-69
2023/12/02 10:50:03;;;;;;;5.05;3.00;;;;;;;;;;10116617;28;20065;-69
2023/12/02 10:55:01;;;;;;;3.35;2.03;;;;;;;;;;10107741;28;20041;-69
2023/12/02 11:00:12;;;;;;;4.15;1.52;;;;;;;;;;10091274;28;20046;-68
2023/12/02 11:05:17;;;;;;;0.85;0.85;;;;;;;;;;10090206;28;20041;-68
2023/12/02 11:10:13;;;;;;;2.78;1.10;;;;;;;;;;10098847;28;20056;-68
2023/12/02 11:15:09;;;;;;;1.20;1.10;;;;;;;;;;10111718;28;20456;-68
2023/12/02 11:20:12;;;;;;;1.55;1.00;;;;;;;;;;10092088;28;20080;-69
2023/12/02 11:25:33;;;;;;;3.67;1.73;;;;;;;;;;10091850;28;20047;-69
2023/12/02 11:30:49;;;;;;;2.55;1.35;;;;;;;;;;10102362;28;20136;-69
2023/12/02 11:36:19;;;;;;;2.20;1.52;;;;;;;;;;10067100;28;20053;-70
2023/12/02 11:41:17;;;;;;;1.48;1.38;;;;;;;;;;10067611;28;20049;-69
2023/12/02 11:46:20;;;;;;;2.10;1.80;;;;;;;;;;10088787;28;20060;-69
2023/12/02 11:51:34;;;;;;;6.28;4.75;;;;;;;;;;10097924;28;20044;-69
2023/12/02 11:56:26;;;;;;;1.65;1.55;;;;;;;;;;10072081;28;20048;-69
2023/12/02 12:01:23;;;;;;;1.45;1.35;;;;;;;;;;10071542;28;20053;-69
2023/12/02 12:06:36;;;;;;;1.88;1.30;;;;;;;;;;10077046;28;20053;-69
2023/12/02 12:11:28;;;;;;;1.40;1.30;;;;;;;;;;10083708;28;20048;-69
2023/12/02 12:16:20;;;;;;;1.15;1.15;;;;;;;;;;10069408;28;20071;-71
2023/12/02 12:21:26;;;;;;;1.40;1.30;;;;;;;;;;10069678;28;20049;-73
2023/12/02 12:26:18;;;;;;;1.20;1.17;;;;;;;;;;10060433;28;20519;-72
2023/12/02 12:31:10;;;;;;;1.38;1.10;;;;;;;;;;10071642;28;20042;-70
2023/12/02 12:36:02;;;;;;;1.13;0.90;;;;;;;;;;10060952;28;20037;-71
2023/12/02 12:40:56;;;;;;;1.00;1.00;;;;;;;;;;10061590;28;20091;-70
2023/12/02 12:45:51;;;;;;;1.85;0.98;;;;;;;;;;10062575;28;20488;-70
2023/12/02 12:50:44;;;;;;;1.25;1.25;;;;;;;;;;10063004;28;20088;-70
2023/12/02 12:55:38;;;;;;;531.72;109.88;;;;;;;;;;10061920;28;20057;-71
2023/12/02 13:00:35;;;;;;;1.35;1.10;;;;;;;;;;10062284;28;20465;-71
2023/12/02 13:05:34;;;;;;;4.80;4.50;;;;;;;;;;10062860;28;20041;-70
2023/12/02 13:10:27;;;;;;;12.88;1.60;;;;;;;;;;10051559;28;20489;-68
2023/12/02 13:15:20;;;;;;;1.55;1.23;;;;;;;;;;10059753;28;20130;-70
2023/12/02 13:20:12;;;;;;;220.93;36.60;;;;;;;;;;10063594;28;20056;-70
2023/12/02 13:25:22;;;;;;;1.30;1.20;;;;;;;;;;10050848;28;20049;-68
2023/12/02 13:30:14;;;;;;;2.50;2.30;;;;;;;;;;10047550;28;20107;-69
2023/12/02 13:35:09;;;;;;;2.55;1.70;;;;;;;;;;10060133;28;20038;-69
2023/12/02 13:40:01;;;;;;;2.55;1.77;;;;;;;;;;10062048;28;20073;-69
2023/12/02 13:45:06;;;;;;;1.98;1.40;;;;;;;;;;10051208;28;20096;-69
2023/12/02 13:49:59;;;;;;;3.05;2.20;;;;;;;;;;10062443;28;20046;-70
2023/12/02 13:55:04;;;;;;;2.15;1.95;;;;;;;;;;10055086;28;20199;-69
2023/12/02 14:00:05;;;;;;;2.70;1.58;;;;;;;;;;10062346;28;20046;-69
2023/12/02 14:05:07;;;;;;;2.72;2.47;;;;;;;;;;10062406;28;20046;-69
2023/12/02 14:09:59;;;;;;;3.10;2.28;;;;;;;;;;10053656;28;20081;-69
2023/12/02 14:15:42;;;;;;;4.03;1.45;;;;;;;;;;10061079;28;20049;-69
2023/12/02 14:20:57;;;;;;;2.22;2.03;;;;;;;;;;10069309;28;20053;-69
2023/12/02 14:26:27;;;;;;;2.13;1.75;;;;;;;;;;10060921;28;20045;-69
2023/12/02 14:31:29;;;;;;;2.90;2.55;;;;;;;;;;10059540;28;20362;-69
2023/12/02 14:36:42;;;;;;;1.33;1.23;;;;;;;;;;10063088;28;20049;-69
2023/12/02 14:42:07;;;;;;;2.45;2.03;;;;;;;;;;10062979;28;20540;-69
2023/12/02 14:47:00;;;;;;;3.42;2.45;;;;;;;;;;10058111;28;20041;-69
2023/12/02 14:51:56;;;;;;;1.70;1.60;;;;;;;;;;10062575;28;20088;-67
2023/12/02 14:56:48;;;;;;;3.22;2.40;;;;;;;;;;10054810;28;20048;-69
2023/12/02 15:01:42;;;;;;;3.38;2.60;;;;;;;;;;10063707;28;20046;-69
2023/12/02 15:06:35;;;;;;;1.90;1.75;;;;;;;;;;10070003;28;20049;-68
2023/12/02 15:11:30;;;;;;;6.78;3.30;;;;;;;;;;10062628;28;20044;-68
2023/12/02 15:16:26;;;;;;;3.95;2.63;;;;;;;;;;10067503;28;20053;-68
2023/12/02 15:21:18;;;;;;;2.42;2.05;;;;;;;;;;10058003;28;20073;-68
2023/12/02 15:26:14;;;;;;;3.13;2.83;;;;;;;;;;10057945;28;20045;-68
2023/12/02 15:31:12;;;;;;;3.70;2.75;;;;;;;;;;10056560;28;20069;-68
2023/12/02 15:36:04;;;;;;;2.65;2.45;;;;;;;;;;10067810;28;20051;-68
2023/12/02 15:40:56;;;;;;;2.78;2.30;;;;;;;;;;10064838;28;20037;-68
2023/12/02 15:45:48;;;;;;;4.97;2.58;;;;;;;;;;10062630;28;20091;-68
2023/12/02 15:50:40;;;;;;;3.47;2.92;;;;;;;;;;10059581;28;20045;-67
2023/12/02 15:55:33;;;;;;;2.35;2.15;;;;;;;;;;10051855;28;20042;-68
2023/12/02 16:00:25;;;;;;;2.50;2.20;;;;;;;;;;10064681;28;20157;-67
2023/12/02 16:05:17;;;;;;;9.90;6.15;;;;;;;;;;10059880;28;20045;-68
2023/12/02 16:10:12;;;;;;;8.18;5.95;;;;;;;;;;10066679;28;20100;-68
2023/12/02 16:15:05;;;;;;;5.35;3.67;;;;;;;;;;10067646;28;20111;-68
2023/12/02 16:19:57;;;;;;;3.55;2.50;;;;;;;;;;10051914;28;20060;-68
2023/12/02 16:24:49;;;;;;;3.03;2.35;;;;;;;;;;10063610;28;20073;-67
2023/12/02 16:29:51;;;;;;;2.53;1.98;;;;;;;;;;10056179;28;20505;-70
2023/12/02 16:34:44;;;;;;;3.90;2.15;;;;;;;;;;10053792;28;20038;-70
2023/12/02 16:39:36;;;;;;;2.38;1.80;;;;;;;;;;10066811;28;20049;-70
2023/12/02 16:44:28;;;;;;;5.25;4.03;;;;;;;;;;10063595;28;20055;-69
2023/12/02 16:49:20;;;;;;;2.45;2.25;;;;;;;;;;10063444;28;20072;-69
2023/12/02 16:54:13;;;;;;;68.10;38.35;;;;;;;;;;10060915;28;20648;-73
2023/12/02 16:59:07;;;;;;;2.42;1.55;;;;;;;;;;10071791;28;20088;-72
2023/12/02 17:03:59;;;;;;;1.33;1.23;;;;;;;;;;10072632;28;20048;-73
2023/12/02 17:08:52;;;;;;;1.25;1.20;;;;;;;;;;10063796;28;20414;-72
2023/12/02 17:13:55;;;;;;;1.70;1.60;;;;;;;;;;10067484;28;20052;-72
2023/12/02 17:19:00;;;;;;;1.98;1.77;;;;;;;;;;10066008;28;20068;-73
2023/12/02 17:23:52;;;;;;;3.53;2.50;;;;;;;;;;10064551;28;20045;-73
2023/12/02 17:28:44;;;;;;;2.20;1.77;;;;;;;;;;10066775;28;20080;-73
2023/12/02 17:33:36;;;;;;;2.28;2.08;;;;;;;;;;10062273;28;20107;-72
2023/12/02 17:38:28;;;;;;;1.55;1.42;;;;;;;;;;10063979;28;20045;-72
2023/12/02 17:43:20;;;;;;;1.45;1.20;;;;;;;;;;10063016;28;20068;-72
2023/12/02 17:48:11;;;;;;;6.30;5.75;;;;;;;;;;10063098;28;20053;-74
2023/12/02 17:53:04;;;;;;;1.38;1.30;;;;;;;;;;10064231;28;20077;-74
2023/12/02 17:57:55;;;;;;;1.33;1.30;;;;;;;;;;10065649;28;20052;-72
2023/12/02 18:02:47;;;;;;;2.08;1.75;;;;;;;;;;10063750;28;20424;-71
2023/12/02 18:07:39;;;;;;;3.25;2.60;;;;;;;;;;10064530;28;20107;-72
2023/12/02 18:12:31;;;;;;;1.75;1.48;;;;;;;;;;10064242;28;20744;-70
2023/12/02 18:17:23;;;;;;;1.63;1.38;;;;;;;;;;10063776;28;20432;-71
2023/12/02 18:22:17;;;;;;;1.20;1.20;;;;;;;;;;10061140;28;20091;-70
2023/12/02 18:27:09;;;;;;;1.88;1.75;;;;;;;;;;10054656;28;20041;-69
2023/12/02 18:32:00;;;;;;;1.73;1.63;;;;;;;;;;10056665;28;20048;-69
2023/12/02 18:36:52;;;;;;;2.28;2.08;;;;;;;;;;10063061;28;20112;-70
2023/12/02 18:41:45;;;;;;;1.27;1.17;;;;;;;;;;10063940;28;20103;-69
2023/12/02 18:46:37;;;;;;;1.75;1.23;;;;;;;;;;10065187;28;20045;-70
2023/12/02 18:51:35;;;;;;;2.10;2.00;;;;;;;;;;10064932;28;20330;-69
2023/12/02 18:56:27;;;;;;;1.77;1.67;;;;;;;;;;10068326;28;20056;-71
2023/12/02 19:01:20;;;;;;;1.63;1.50;;;;;;;;;;10069337;28;20726;-71
2023/12/02 19:06:12;;;;;;;1.50;1.40;;;;;;;;;;10074521;28;20116;-71
2023/12/02 19:11:05;;;;;;;1.70;1.60;;;;;;;;;;10064955;28;20038;-73
2023/12/02 19:15:56;;;;;;;1.65;1.55;;;;;;;;;;10055843;28;20092;-70
2023/12/02 19:20:48;;;;;;;12.32;8.00;;;;;;;;;;10063589;28;20793;-71
2023/12/02 19:25:40;;;;;;;6.45;3.17;;;;;;;;;;10059675;28;20073;-71
2023/12/02 19:30:32;;;;;;;8.10;4.53;;;;;;;;;;10058947;28;20453;-71
2023/12/02 19:35:24;;;;;;;7.55;4.47;;;;;;;;;;10057823;28;20038;-71
2023/12/02 19:40:16;;;;;;;5.65;3.75;;;;;;;;;;10052524;28;20456;-71
2023/12/02 19:45:08;;;;;;;3.13;2.65;;;;;;;;;;10063308;28;20423;-71
2023/12/02 19:50:00;;;;;;;4.10;3.47;;;;;;;;;;10048006;28;20034;-71
2023/12/02 19:54:52;;;;;;;4.40;2.78;;;;;;;;;;10063242;28;20357;-70
2023/12/02 19:59:44;;;;;;;2.38;2.17;;;;;;;;;;10065334;28;20492;-71
2023/12/02 20:04:36;;;;;;;5.85;2.33;;;;;;;;;;10053461;28;20050;-71
2023/12/02 20:09:28;;;;;;;1.80;1.70;;;;;;;;;;10057706;28;20038;-71
2023/12/02 20:14:20;;;;;;;2.38;2.13;;;;;;;;;;10062072;28;20095;-71
2023/12/02 20:19:12;;;;;;;2.22;2.03;;;;;;;;;;10052491;28;20131;-71
2023/12/02 20:24:04;;;;;;;3.53;2.92;;;;;;;;;;10047221;28;20351;-71
2023/12/02 20:28:56;;;;;;;2.92;2.65;;;;;;;;;;10062322;28;20099;-69
2023/12/02 20:33:49;;;;;;;4.68;4.10;;;;;;;;;;10056923;28;20179;-69
2023/12/02 20:38:41;;;;;;;7.82;5.85;;;;;;;;;;10067598;28;20053;-70
2023/12/02 20:43:36;;;;;;;16.50;11.60;;;;;;;;;;10067518;28;20050;-70
2023/12/02 20:48:28;;;;;;;8.57;5.28;;;;;;;;;;10096574;28;20128;-70
2023/12/02 20:53:20;;;;;;;8.00;4.70;;;;;;;;;;10097734;28;20115;-70
2023/12/02 20:58:12;;;;;;;4.53;3.33;;;;;;;;;;10069021;28;20076;-70
2023/12/02 21:03:04;;;;;;;3.75;3.05;;;;;;;;;;10066726;28;20475;-70
2023/12/02 21:07:55;;;;;;;2.90;2.25;;;;;;;;;;10079232;28;20132;-70
2023/12/02 21:12:47;;;;;;;2.97;2.10;;;;;;;;;;10084805;28;20046;-71
2023/12/02 21:17:39;;;;;;;2.50;2.28;;;;;;;;;;10082786;28;20049;-71
2023/12/02 21:22:31;;;;;;;4.78;2.28;;;;;;;;;;10083351;28;20049;-71
2023/12/02 21:27:23;;;;;;;4.15;3.20;;;;;;;;;;10076055;28;20483;-71
2023/12/02 21:32:24;;;;;;;3.88;2.90;;;;;;;;;;10054675;28;20372;-71
2023/12/02 21:37:15;;;;;;;1.63;1.52;;;;;;;;;;10086156;28;20445;-71
2023/12/02 21:42:10;;;;;;;2.00;1.83;;;;;;;;;;10080644;28;20080;-71
2023/12/02 21:47:03;;;;;;;1.92;1.50;;;;;;;;;;10083934;28;20075;-70
2023/12/02 21:51:54;;;;;;;3.92;1.98;;;;;;;;;;10082817;28;20103;-71
2023/12/02 21:56:48;;;;;;;3.20;2.20;;;;;;;;;;10072984;28;20045;-70
2023/12/02 22:01:41;;;;;;;3.33;2.67;;;;;;;;;;10086720;28;20440;-70
2023/12/02 22:07:10;;;;;;;7.63;3.72;;;;;;;;;;10070194;28;20404;-71
2023/12/02 22:12:07;;;;;;;3.90;3.30;;;;;;;;;;10094352;28;20066;-71
2023/12/02 22:17:02;;;;;;;6.43;4.72;;;;;;;;;;10082600;28;20042;-71
2023/12/02 22:21:54;;;;;;;9.30;6.22;;;;;;;;;;10083159;28;20049;-71
2023/12/02 22:26:47;;;;;;;4.90;3.53;;;;;;;;;;10078214;28;20081;-71
2023/12/02 22:31:38;;;;;;;4.88;3.00;;;;;;;;;;10081310;28;20079;-71
2023/12/02 22:36:31;;;;;;;4.00;2.75;;;;;;;;;;10056991;28;20042;-70
2023/12/02 22:41:23;;;;;;;1.40;1.27;;;;;;;;;;10060705;28;20479;-71
2023/12/02 22:46:19;;;;;;;4.25;2.90;;;;;;;;;;10064739;28;20528;-71
2023/12/02 22:51:29;;;;;;;2.05;1.73;;;;;;;;;;10068167;28;20043;-71
2023/12/02 22:56:22;;;;;;;;;;;;;;;;;;10076882;28;20033;-71
2023/12/02 23:01:25;;;;;;;2.33;2.13;;;;;;;;;;10093326;28;20351;-71
2023/12/02 23:06:17;;;;;;;4.93;3.33;;;;;;;;;;10096860;28;20045;-69
2023/12/02 23:11:24;;;;;;;15.13;7.10;;;;;;;;;;10096495;28;20383;-71
2023/12/02 23:16:36;;;;;;;5.72;2.42;;;;;;;;;;10080802;28;20048;-69
2023/12/02 23:21:28;;;;;;;1.40;1.30;;;;;;;;;;10077952;28;20057;-71
2023/12/02 23:26:20;;;;;;;1.38;1.30;;;;;;;;;;10088364;28;20379;-69
2023/12/02 23:31:12;;;;;;;3.97;3.20;;;;;;;;;;10108411;28;20467;-71
2023/12/02 23:36:04;;;;;;;5.30;3.58;;;;;;;;;;10094660;28;20060;-69
2023/12/02 23:40:57;;;;;;;8.82;6.10;;;;;;;;;;10107216;28;20049;-71
2023/12/02 23:45:49;;;;;;;9.57;6.88;;;;;;;;;;10107043;28;20053;-71
2023/12/02 23:50:41;;;;;;;5.00;3.35;;;;;;;;;;10105363;28;20072;-72
2023/12/02 23:55:33;;;;;;;2.03;1.83;;;;;;;;;;10093549;28;20053;-69
